sensor_id;sensor_type;location;lat;lon;timestamp;P1;durP1;ratioP1;P2;durP2;ratioP2
61638;SDS011;47544;52.484;4.658;2022-11-28T00:00:06;12.30;;;10.70;;
61638;SDS011;47544;52.484;4.658;2022-11-28T00:00:18;12.35;;;10.65;;
61638;SDS011;47544;52.484;4.658;2022-11-28T00:00:29;12.75;;;10.70;;
61638;SDS011;47544;52.484;4.658;2022-11-28T00:00:40;12.55;;;10.52;;
61638;SDS011;47544;52.484;4.658;2022-11-28T00:00:51;12.73;;;10.50;;
61638;SDS011;47544;52.484;4.658;2022-11-28T00:01:13;12.63;;;10.70;;
61638;SDS011;47544;52.484;4.658;2022-11-28T00:01:29;13.10;;;10.90;;
61638;SDS011;47544;52.484;4.658;2022-11-28T00:01:46;12.82;;;10.85;;
61638;SDS011;47544;52.484;4.658;2022-11-28T00:01:57;13.57;;;10.52;;
61638;SDS011;47544;52.484;4.658;2022-11-28T00:02:08;13.25;;;10.27;;
61638;SDS011;47544;52.484;4.658;2022-11-28T00:02:19;12.65;;;10.45;;
61638;SDS011;47544;52.484;4.658;2022-11-28T00:02:31;12.07;;;10.63;;
61638;SDS011;47544;52.484;4.658;2022-11-28T00:02:43;12.30;;;10.55;;
61638;SDS011;47544;52.484;4.658;2022-11-28T00:02:56;12.70;;;10.30;;
61638;SDS011;47544;52.484;4.658;2022-11-28T00:03:11;12.98;;;10.48;;
61638;SDS011;47544;52.484;4.658;2022-11-28T00:03:22;13.13;;;10.40;;
61638;SDS011;47544;52.484;4.658;2022-11-28T00:03:34;13.30;;;10.60;;
61638;SDS011;47544;52.484;4.658;2022-11-28T00:03:45;12.77;;;10.77;;
61638;SDS011;47544;52.484;4.658;2022-11-28T00:03:57;12.52;;;10.82;;
61638;SDS011;47544;52.484;4.658;2022-11-28T00:04:09;12.50;;;10.88;;
61638;SDS011;47544;52.484;4.658;2022-11-28T00:04:20;12.55;;;10.60;;
61638;SDS011;47544;52.484;4.658;2022-11-28T00:04:31;12.40;;;10.70;;
61638;SDS011;47544;52.484;4.658;2022-11-28T00:04:42;12.13;;;10.38;;
61638;SDS011;47544;52.484;4.658;2022-11-28T00:04:55;12.52;;;10.02;;
61638;SDS011;47544;52.484;4.658;2022-11-28T00:05:08;12.13;;;9.77;;
61638;SDS011;47544;52.484;4.658;2022-11-28T00:05:24;11.82;;;10.52;;
61638;SDS011;47544;52.484;4.658;2022-11-28T00:05:35;12.25;;;10.60;;
61638;SDS011;47544;52.484;4.658;2022-11-28T00:05:46;12.10;;;10.43;;
61638;SDS011;47544;52.484;4.658;2022-11-28T00:06:01;12.00;;;10.50;;
61638;SDS011;47544;52.484;4.658;2022-11-28T00:06:13;12.45;;;11.05;;
61638;SDS011;47544;52.484;4.658;2022-11-28T00:06:28;13.13;;;11.27;;
61638;SDS011;47544;52.484;4.658;2022-11-28T00:06:41;12.95;;;11.00;;
61638;SDS011;47544;52.484;4.658;2022-11-28T00:06:54;12.35;;;10.75;;
61638;SDS011;47544;52.484;4.658;2022-11-28T00:07:06;12.52;;;10.98;;
61638;SDS011;47544;52.484;4.658;2022-11-28T00:07:17;13.23;;;11.25;;
61638;SDS011;47544;52.484;4.658;2022-11-28T00:07:28;13.38;;;11.00;;
61638;SDS011;47544;52.484;4.658;2022-11-28T00:07:39;12.90;;;10.90;;
61638;SDS011;47544;52.484;4.658;2022-11-28T00:07:50;13.10;;;10.82;;
61638;SDS011;47544;52.484;4.658;2022-11-28T00:08:01;12.98;;;11.00;;
61638;SDS011;47544;52.484;4.658;2022-11-28T00:08:23;12.70;;;11.10;;
61638;SDS011;47544;52.484;4.658;2022-11-28T00:08:36;12.82;;;10.98;;
61638;SDS011;47544;52.484;4.658;2022-11-28T00:08:53;12.90;;;10.73;;
61638;SDS011;47544;52.484;4.658;2022-11-28T00:09:06;13.13;;;10.85;;
61638;SDS011;47544;52.484;4.658;2022-11-28T00:09:18;12.70;;;10.82;;
61638;SDS011;47544;52.484;4.658;2022-11-28T00:09:31;12.27;;;10.52;;
61638;SDS011;47544;52.484;4.658;2022-11-28T00:09:42;12.52;;;10.20;;
61638;SDS011;47544;52.484;4.658;2022-11-28T00:09:53;12.48;;;10.43;;
61638;SDS011;47544;52.484;4.658;2022-11-28T00:10:07;12.43;;;10.63;;
61638;SDS011;47544;52.484;4.658;2022-11-28T00:10:23;11.90;;;10.60;;
61638;SDS011;47544;52.484;4.658;2022-11-28T00:10:38;12.30;;;10.98;;
61638;SDS011;47544;52.484;4.658;2022-11-28T00:10:49;12.25;;;10.82;;
61638;SDS011;47544;52.484;4.658;2022-11-28T00:11:02;12.63;;;10.52;;
61638;SDS011;47544;52.484;4.658;2022-11-28T00:11:13;12.40;;;10.40;;
61638;SDS011;47544;52.484;4.658;2022-11-28T00:11:27;12.60;;;10.40;;
61638;SDS011;47544;52.484;4.658;2022-11-28T00:11:39;12.65;;;10.52;;
61638;SDS011;47544;52.484;4.658;2022-11-28T00:11:50;12.57;;;10.48;;
61638;SDS011;47544;52.484;4.658;2022-11-28T00:12:01;13.00;;;10.60;;
61638;SDS011;47544;52.484;4.658;2022-11-28T00:12:13;12.90;;;10.77;;
61638;SDS011;47544;52.484;4.658;2022-11-28T00:12:25;13.23;;;10.98;;
61638;SDS011;47544;52.484;4.658;2022-11-28T00:12:39;12.73;;;11.00;;
61638;SDS011;47544;52.484;4.658;2022-11-28T00:12:50;12.75;;;10.98;;
61638;SDS011;47544;52.484;4.658;2022-11-28T00:13:01;12.68;;;10.90;;
61638;SDS011;47544;52.484;4.658;2022-11-28T00:13:12;12.57;;;10.80;;
61638;SDS011;47544;52.484;4.658;2022-11-28T00:13:23;12.75;;;10.68;;
61638;SDS011;47544;52.484;4.658;2022-11-28T00:13:34;13.40;;;10.90;;
61638;SDS011;47544;52.484;4.658;2022-11-28T00:13:48;13.40;;;10.90;;
61638;SDS011;47544;52.484;4.658;2022-11-28T00:14:00;13.25;;;11.07;;
61638;SDS011;47544;52.484;4.658;2022-11-28T00:14:12;12.48;;;10.88;;
61638;SDS011;47544;52.484;4.658;2022-11-28T00:14:23;13.38;;;10.77;;
61638;SDS011;47544;52.484;4.658;2022-11-28T00:14:34;13.65;;;11.07;;
61638;SDS011;47544;52.484;4.658;2022-11-28T00:14:45;13.23;;;11.15;;
61638;SDS011;47544;52.484;4.658;2022-11-28T00:14:56;12.45;;;10.85;;
61638;SDS011;47544;52.484;4.658;2022-11-28T00:15:09;12.88;;;10.52;;
61638;SDS011;47544;52.484;4.658;2022-11-28T00:15:20;13.32;;;10.60;;
61638;SDS011;47544;52.484;4.658;2022-11-28T00:15:31;12.73;;;10.63;;
61638;SDS011;47544;52.484;4.658;2022-11-28T00:15:42;12.85;;;10.77;;
61638;SDS011;47544;52.484;4.658;2022-11-28T00:15:57;13.20;;;10.85;;
61638;SDS011;47544;52.484;4.658;2022-11-28T00:16:08;12.65;;;10.65;;
61638;SDS011;47544;52.484;4.658;2022-11-28T00:16:22;12.40;;;10.70;;
61638;SDS011;47544;52.484;4.658;2022-11-28T00:16:33;12.65;;;10.80;;
61638;SDS011;47544;52.484;4.658;2022-11-28T00:16:46;12.73;;;10.82;;
61638;SDS011;47544;52.484;4.658;2022-11-28T00:16:57;12.52;;;10.50;;
61638;SDS011;47544;52.484;4.658;2022-11-28T00:17:08;11.95;;;10.23;;
61638;SDS011;47544;52.484;4.658;2022-11-28T00:17:19;11.85;;;10.23;;
61638;SDS011;47544;52.484;4.658;2022-11-28T00:17:30;11.95;;;10.65;;
61638;SDS011;47544;52.484;4.658;2022-11-28T00:17:50;13.38;;;11.30;;
61638;SDS011;47544;52.484;4.658;2022-11-28T00:18:01;13.65;;;11.07;;
61638;SDS011;47544;52.484;4.658;2022-11-28T00:18:13;13.32;;;10.52;;
61638;SDS011;47544;52.484;4.658;2022-11-28T00:18:25;12.95;;;10.70;;
61638;SDS011;47544;52.484;4.658;2022-11-28T00:18:36;12.48;;;10.70;;
61638;SDS011;47544;52.484;4.658;2022-11-28T00:18:53;12.40;;;10.55;;
61638;SDS011;47544;52.484;4.658;2022-11-28T00:19:09;12.13;;;10.48;;
61638;SDS011;47544;52.484;4.658;2022-11-28T00:19:22;12.50;;;10.68;;
61638;SDS011;47544;52.484;4.658;2022-11-28T00:19:34;12.52;;;10.60;;
61638;SDS011;47544;52.484;4.658;2022-11-28T00:19:46;12.70;;;10.73;;
61638;SDS011;47544;52.484;4.658;2022-11-28T00:19:57;13.00;;;10.90;;
61638;SDS011;47544;52.484;4.658;2022-11-28T00:20:09;13.75;;;11.00;;
61638;SDS011;47544;52.484;4.658;2022-11-28T00:20:20;13.15;;;10.75;;
61638;SDS011;47544;52.484;4.658;2022-11-28T00:20:31;12.73;;;10.50;;
61638;SDS011;47544;52.484;4.658;2022-11-28T00:20:43;12.15;;;10.57;;
61638;SDS011;47544;52.484;4.658;2022-11-28T00:20:57;12.20;;;10.52;;
61638;SDS011;47544;52.484;4.658;2022-11-28T00:21:09;11.93;;;10.25;;
61638;SDS011;47544;52.484;4.658;2022-11-28T00:21:23;12.27;;;10.10;;
61638;SDS011;47544;52.484;4.658;2022-11-28T00:21:34;12.38;;;10.43;;
61638;SDS011;47544;52.484;4.658;2022-11-28T00:21:46;12.05;;;10.35;;
61638;SDS011;47544;52.484;4.658;2022-11-28T00:21:58;12.55;;;10.50;;
61638;SDS011;47544;52.484;4.658;2022-11-28T00:22:09;12.30;;;10.45;;
61638;SDS011;47544;52.484;4.658;2022-11-28T00:22:20;12.45;;;10.73;;
61638;SDS011;47544;52.484;4.658;2022-11-28T00:22:31;11.95;;;10.60;;
61638;SDS011;47544;52.484;4.658;2022-11-28T00:22:42;12.02;;;10.38;;
61638;SDS011;47544;52.484;4.658;2022-11-28T00:22:53;12.32;;;10.50;;
61638;SDS011;47544;52.484;4.658;2022-11-28T00:23:06;12.02;;;10.48;;
61638;SDS011;47544;52.484;4.658;2022-11-28T00:23:21;12.48;;;10.80;;
61638;SDS011;47544;52.484;4.658;2022-11-28T00:23:32;13.60;;;11.40;;
61638;SDS011;47544;52.484;4.658;2022-11-28T00:23:44;13.27;;;11.20;;
61638;SDS011;47544;52.484;4.658;2022-11-28T00:23:55;13.18;;;11.25;;
61638;SDS011;47544;52.484;4.658;2022-11-28T00:24:09;13.90;;;11.10;;
61638;SDS011;47544;52.484;4.658;2022-11-28T00:24:20;13.85;;;10.73;;
61638;SDS011;47544;52.484;4.658;2022-11-28T00:24:34;12.80;;;10.20;;
61638;SDS011;47544;52.484;4.658;2022-11-28T00:24:53;11.93;;;10.32;;
61638;SDS011;47544;52.484;4.658;2022-11-28T00:25:06;12.38;;;10.27;;
61638;SDS011;47544;52.484;4.658;2022-11-28T00:25:18;11.93;;;10.35;;
61638;SDS011;47544;52.484;4.658;2022-11-28T00:25:28;11.48;;;10.15;;
61638;SDS011;47544;52.484;4.658;2022-11-28T00:25:48;11.55;;;10.30;;
61638;SDS011;47544;52.484;4.658;2022-11-28T00:26:06;11.65;;;9.88;;
61638;SDS011;47544;52.484;4.658;2022-11-28T00:26:21;11.48;;;9.65;;
61638;SDS011;47544;52.484;4.658;2022-11-28T00:26:33;11.73;;;10.00;;
61638;SDS011;47544;52.484;4.658;2022-11-28T00:26:44;12.23;;;10.23;;
61638;SDS011;47544;52.484;4.658;2022-11-28T00:26:55;12.77;;;10.52;;
61638;SDS011;47544;52.484;4.658;2022-11-28T00:27:07;12.45;;;10.48;;
61638;SDS011;47544;52.484;4.658;2022-11-28T00:27:20;11.65;;;10.32;;
61638;SDS011;47544;52.484;4.658;2022-11-28T00:27:32;11.60;;;10.38;;
61638;SDS011;47544;52.484;4.658;2022-11-28T00:27:43;11.40;;;10.07;;
61638;SDS011;47544;52.484;4.658;2022-11-28T00:27:56;11.65;;;10.00;;
61638;SDS011;47544;52.484;4.658;2022-11-28T00:28:07;11.85;;;9.90;;
61638;SDS011;47544;52.484;4.658;2022-11-28T00:28:18;11.70;;;9.95;;
61638;SDS011;47544;52.484;4.658;2022-11-28T00:28:29;11.35;;;10.05;;
61638;SDS011;47544;52.484;4.658;2022-11-28T00:28:41;12.05;;;10.25;;
61638;SDS011;47544;52.484;4.658;2022-11-28T00:28:52;12.70;;;10.77;;
61638;SDS011;47544;52.484;4.658;2022-11-28T00:29:06;12.63;;;10.82;;
61638;SDS011;47544;52.484;4.658;2022-11-28T00:29:18;12.07;;;10.27;;
61638;SDS011;47544;52.484;4.658;2022-11-28T00:29:29;11.77;;;9.90;;
61638;SDS011;47544;52.484;4.658;2022-11-28T00:29:41;12.05;;;9.85;;
61638;SDS011;47544;52.484;4.658;2022-11-28T00:29:51;11.25;;;9.48;;
61638;SDS011;47544;52.484;4.658;2022-11-28T00:30:03;11.40;;;9.57;;
61638;SDS011;47544;52.484;4.658;2022-11-28T00:30:15;12.40;;;10.02;;
61638;SDS011;47544;52.484;4.658;2022-11-28T00:30:26;12.80;;;10.13;;
61638;SDS011;47544;52.484;4.658;2022-11-28T00:30:37;12.50;;;9.88;;
61638;SDS011;47544;52.484;4.658;2022-11-28T00:30:48;11.75;;;9.50;;
61638;SDS011;47544;52.484;4.658;2022-11-28T00:30:59;11.55;;;9.70;;
61638;SDS011;47544;52.484;4.658;2022-11-28T00:31:11;11.45;;;10.07;;
61638;SDS011;47544;52.484;4.658;2022-11-28T00:31:24;11.57;;;10.38;;
61638;SDS011;47544;52.484;4.658;2022-11-28T00:31:36;11.50;;;10.30;;
61638;SDS011;47544;52.484;4.658;2022-11-28T00:31:51;11.43;;;10.23;;
61638;SDS011;47544;52.484;4.658;2022-11-28T00:32:03;11.52;;;10.32;;
61638;SDS011;47544;52.484;4.658;2022-11-28T00:32:14;11.40;;;10.20;;
61638;SDS011;47544;52.484;4.658;2022-11-28T00:32:25;11.65;;;10.40;;
61638;SDS011;47544;52.484;4.658;2022-11-28T00:32:45;12.32;;;10.48;;
61638;SDS011;47544;52.484;4.658;2022-11-28T00:33:01;11.93;;;10.02;;
61638;SDS011;47544;52.484;4.658;2022-11-28T00:33:12;11.88;;;10.20;;
61638;SDS011;47544;52.484;4.658;2022-11-28T00:33:26;11.70;;;10.10;;
61638;SDS011;47544;52.484;4.658;2022-11-28T00:33:38;11.82;;;10.10;;
61638;SDS011;47544;52.484;4.658;2022-11-28T00:33:49;12.02;;;10.13;;
61638;SDS011;47544;52.484;4.658;2022-11-28T00:34:00;11.98;;;10.30;;
61638;SDS011;47544;52.484;4.658;2022-11-28T00:34:12;12.25;;;10.30;;
61638;SDS011;47544;52.484;4.658;2022-11-28T00:34:26;12.02;;;9.85;;
61638;SDS011;47544;52.484;4.658;2022-11-28T00:34:37;12.13;;;9.88;;
61638;SDS011;47544;52.484;4.658;2022-11-28T00:34:49;11.80;;;9.82;;
61638;SDS011;47544;52.484;4.658;2022-11-28T00:35:00;11.65;;;10.15;;
61638;SDS011;47544;52.484;4.658;2022-11-28T00:35:11;11.23;;;10.00;;
61638;SDS011;47544;52.484;4.658;2022-11-28T00:35:22;11.68;;;10.02;;
61638;SDS011;47544;52.484;4.658;2022-11-28T00:35:33;11.35;;;9.75;;
61638;SDS011;47544;52.484;4.658;2022-11-28T00:35:44;10.82;;;9.32;;
61638;SDS011;47544;52.484;4.658;2022-11-28T00:35:56;10.43;;;8.88;;
61638;SDS011;47544;52.484;4.658;2022-11-28T00:36:13;11.12;;;8.90;;
61638;SDS011;47544;52.484;4.658;2022-11-28T00:36:28;10.93;;;9.00;;
61638;SDS011;47544;52.484;4.658;2022-11-28T00:36:39;11.02;;;9.45;;
61638;SDS011;47544;52.484;4.658;2022-11-28T00:36:50;11.32;;;9.88;;
61638;SDS011;47544;52.484;4.658;2022-11-28T00:37:01;11.50;;;9.80;;
61638;SDS011;47544;52.484;4.658;2022-11-28T00:37:15;11.52;;;9.65;;
61638;SDS011;47544;52.484;4.658;2022-11-28T00:37:26;11.85;;;9.70;;
61638;SDS011;47544;52.484;4.658;2022-11-28T00:37:38;11.93;;;9.65;;
61638;SDS011;47544;52.484;4.658;2022-11-28T00:37:51;11.68;;;9.45;;
61638;SDS011;47544;52.484;4.658;2022-11-28T00:38:02;11.02;;;9.18;;
61638;SDS011;47544;52.484;4.658;2022-11-28T00:38:31;10.43;;;9.00;;
61638;SDS011;47544;52.484;4.658;2022-11-28T00:38:42;11.43;;;9.38;;
61638;SDS011;47544;52.484;4.658;2022-11-28T00:38:53;10.98;;;9.20;;
61638;SDS011;47544;52.484;4.658;2022-11-28T00:39:06;10.85;;;9.23;;
61638;SDS011;47544;52.484;4.658;2022-11-28T00:39:17;10.68;;;9.25;;
61638;SDS011;47544;52.484;4.658;2022-11-28T00:39:28;10.77;;;9.38;;
61638;SDS011;47544;52.484;4.658;2022-11-28T00:39:39;10.93;;;9.55;;
61638;SDS011;47544;52.484;4.658;2022-11-28T00:39:50;10.80;;;9.60;;
61638;SDS011;47544;52.484;4.658;2022-11-28T00:40:01;10.88;;;9.70;;
61638;SDS011;47544;52.484;4.658;2022-11-28T00:40:12;10.90;;;9.50;;
61638;SDS011;47544;52.484;4.658;2022-11-28T00:40:24;11.02;;;9.52;;
61638;SDS011;47544;52.484;4.658;2022-11-28T00:40:38;11.23;;;9.88;;
61638;SDS011;47544;52.484;4.658;2022-11-28T00:40:56;11.63;;;10.27;;
61638;SDS011;47544;52.484;4.658;2022-11-28T00:41:08;11.25;;;10.00;;
61638;SDS011;47544;52.484;4.658;2022-11-28T00:41:20;11.15;;;9.90;;
61638;SDS011;47544;52.484;4.658;2022-11-28T00:41:34;12.18;;;9.77;;
61638;SDS011;47544;52.484;4.658;2022-11-28T00:42:06;11.48;;;9.77;;
61638;SDS011;47544;52.484;4.658;2022-11-28T00:42:22;11.57;;;9.95;;
61638;SDS011;47544;52.484;4.658;2022-11-28T00:42:33;11.73;;;9.90;;
61638;SDS011;47544;52.484;4.658;2022-11-28T00:42:44;11.65;;;10.10;;
61638;SDS011;47544;52.484;4.658;2022-11-28T00:42:58;11.88;;;10.00;;
61638;SDS011;47544;52.484;4.658;2022-11-28T00:43:09;11.38;;;9.75;;
61638;SDS011;47544;52.484;4.658;2022-11-28T00:43:22;11.38;;;9.75;;
61638;SDS011;47544;52.484;4.658;2022-11-28T00:43:37;11.63;;;9.90;;
61638;SDS011;47544;52.484;4.658;2022-11-28T00:43:49;11.80;;;10.18;;
61638;SDS011;47544;52.484;4.658;2022-11-28T00:44:01;11.98;;;10.35;;
61638;SDS011;47544;52.484;4.658;2022-11-28T00:44:12;12.05;;;10.55;;
61638;SDS011;47544;52.484;4.658;2022-11-28T00:44:23;12.15;;;10.48;;
61638;SDS011;47544;52.484;4.658;2022-11-28T00:44:34;12.25;;;10.38;;
61638;SDS011;47544;52.484;4.658;2022-11-28T00:44:50;12.35;;;10.38;;
61638;SDS011;47544;52.484;4.658;2022-11-28T00:45:04;12.15;;;10.13;;
61638;SDS011;47544;52.484;4.658;2022-11-28T00:45:15;12.30;;;9.95;;
61638;SDS011;47544;52.484;4.658;2022-11-28T00:45:28;11.85;;;10.02;;
61638;SDS011;47544;52.484;4.658;2022-11-28T00:45:39;11.73;;;10.18;;
61638;SDS011;47544;52.484;4.658;2022-11-28T00:45:50;11.90;;;10.40;;
61638;SDS011;47544;52.484;4.658;2022-11-28T00:46:01;11.90;;;10.48;;
61638;SDS011;47544;52.484;4.658;2022-11-28T00:46:14;11.05;;;9.93;;
61638;SDS011;47544;52.484;4.658;2022-11-28T00:46:27;11.30;;;10.10;;
61638;SDS011;47544;52.484;4.658;2022-11-28T00:46:38;11.40;;;10.13;;
61638;SDS011;47544;52.484;4.658;2022-11-28T00:46:55;12.02;;;10.43;;
61638;SDS011;47544;52.484;4.658;2022-11-28T00:47:09;11.32;;;9.77;;
61638;SDS011;47544;52.484;4.658;2022-11-28T00:47:20;11.38;;;9.88;;
61638;SDS011;47544;52.484;4.658;2022-11-28T00:47:32;11.30;;;10.00;;
61638;SDS011;47544;52.484;4.658;2022-11-28T00:47:43;11.55;;;10.25;;
61638;SDS011;47544;52.484;4.658;2022-11-28T00:47:54;11.30;;;9.93;;
61638;SDS011;47544;52.484;4.658;2022-11-28T00:48:05;11.70;;;10.05;;
61638;SDS011;47544;52.484;4.658;2022-11-28T00:48:16;11.70;;;9.90;;
61638;SDS011;47544;52.484;4.658;2022-11-28T00:48:27;11.70;;;10.05;;
61638;SDS011;47544;52.484;4.658;2022-11-28T00:48:38;12.15;;;10.35;;
61638;SDS011;47544;52.484;4.658;2022-11-28T00:48:49;12.30;;;10.70;;
61638;SDS011;47544;52.484;4.658;2022-11-28T00:49:03;12.05;;;10.52;;
61638;SDS011;47544;52.484;4.658;2022-11-28T00:49:16;12.02;;;10.30;;
61638;SDS011;47544;52.484;4.658;2022-11-28T00:49:29;11.90;;;10.13;;
61638;SDS011;47544;52.484;4.658;2022-11-28T00:49:40;11.60;;;10.20;;
61638;SDS011;47544;52.484;4.658;2022-11-28T00:49:51;11.40;;;10.00;;
61638;SDS011;47544;52.484;4.658;2022-11-28T00:50:02;11.75;;;10.07;;
61638;SDS011;47544;52.484;4.658;2022-11-28T00:50:13;11.93;;;10.05;;
61638;SDS011;47544;52.484;4.658;2022-11-28T00:50:24;12.05;;;10.65;;
61638;SDS011;47544;52.484;4.658;2022-11-28T00:50:36;12.32;;;10.32;;
61638;SDS011;47544;52.484;4.658;2022-11-28T00:50:51;12.60;;;9.80;;
61638;SDS011;47544;52.484;4.658;2022-11-28T00:51:04;12.38;;;10.07;;
61638;SDS011;47544;52.484;4.658;2022-11-28T00:51:16;12.63;;;10.35;;
61638;SDS011;47544;52.484;4.658;2022-11-28T00:51:29;12.27;;;10.18;;
61638;SDS011;47544;52.484;4.658;2022-11-28T00:51:43;11.68;;;9.98;;
61638;SDS011;47544;52.484;4.658;2022-11-28T00:51:55;11.90;;;9.88;;
61638;SDS011;47544;52.484;4.658;2022-11-28T00:52:06;11.95;;;9.98;;
61638;SDS011;47544;52.484;4.658;2022-11-28T00:52:17;11.40;;;9.88;;
61638;SDS011;47544;52.484;4.658;2022-11-28T00:52:30;11.55;;;10.15;;
61638;SDS011;47544;52.484;4.658;2022-11-28T00:52:41;11.80;;;10.05;;
61638;SDS011;47544;52.484;4.658;2022-11-28T00:52:52;11.85;;;9.90;;
61638;SDS011;47544;52.484;4.658;2022-11-28T00:53:03;11.70;;;9.88;;
61638;SDS011;47544;52.484;4.658;2022-11-28T00:53:14;11.77;;;10.23;;
61638;SDS011;47544;52.484;4.658;2022-11-28T00:53:25;11.77;;;10.20;;
61638;SDS011;47544;52.484;4.658;2022-11-28T00:53:37;12.10;;;10.10;;
61638;SDS011;47544;52.484;4.658;2022-11-28T00:53:50;11.68;;;10.05;;
61638;SDS011;47544;52.484;4.658;2022-11-28T00:54:02;11.40;;;10.00;;
61638;SDS011;47544;52.484;4.658;2022-11-28T00:54:13;11.45;;;9.90;;
61638;SDS011;47544;52.484;4.658;2022-11-28T00:54:25;11.60;;;9.93;;
61638;SDS011;47544;52.484;4.658;2022-11-28T00:54:36;11.40;;;9.75;;
61638;SDS011;47544;52.484;4.658;2022-11-28T00:54:47;10.77;;;9.48;;
61638;SDS011;47544;52.484;4.658;2022-11-28T00:54:59;10.98;;;9.50;;
61638;SDS011;47544;52.484;4.658;2022-11-28T00:55:10;11.60;;;10.18;;
61638;SDS011;47544;52.484;4.658;2022-11-28T00:55:21;11.82;;;10.40;;
61638;SDS011;47544;52.484;4.658;2022-11-28T00:55:32;11.35;;;10.10;;
61638;SDS011;47544;52.484;4.658;2022-11-28T00:55:43;11.02;;;9.68;;
61638;SDS011;47544;52.484;4.658;2022-11-28T00:55:54;10.77;;;9.50;;
61638;SDS011;47544;52.484;4.658;2022-11-28T00:56:06;11.25;;;9.77;;
61638;SDS011;47544;52.484;4.658;2022-11-28T00:56:19;11.45;;;9.82;;
61638;SDS011;47544;52.484;4.658;2022-11-28T00:56:32;11.63;;;9.73;;
61638;SDS011;47544;52.484;4.658;2022-11-28T00:56:43;11.40;;;9.85;;
61638;SDS011;47544;52.484;4.658;2022-11-28T00:56:54;11.10;;;9.68;;
61638;SDS011;47544;52.484;4.658;2022-11-28T00:57:07;11.43;;;9.82;;
61638;SDS011;47544;52.484;4.658;2022-11-28T00:57:19;11.48;;;9.93;;
61638;SDS011;47544;52.484;4.658;2022-11-28T00:57:32;11.50;;;9.75;;
61638;SDS011;47544;52.484;4.658;2022-11-28T00:57:44;11.25;;;9.70;;
61638;SDS011;47544;52.484;4.658;2022-11-28T00:57:55;10.98;;;9.80;;
61638;SDS011;47544;52.484;4.658;2022-11-28T00:58:06;11.30;;;10.10;;
61638;SDS011;47544;52.484;4.658;2022-11-28T00:58:18;11.30;;;10.10;;
61638;SDS011;47544;52.484;4.658;2022-11-28T00:58:29;11.35;;;10.02;;
61638;SDS011;47544;52.484;4.658;2022-11-28T00:58:40;11.70;;;10.10;;
61638;SDS011;47544;52.484;4.658;2022-11-28T00:58:52;11.80;;;10.10;;
61638;SDS011;47544;52.484;4.658;2022-11-28T00:59:04;11.88;;;9.90;;
61638;SDS011;47544;52.484;4.658;2022-11-28T00:59:15;12.32;;;9.90;;
61638;SDS011;47544;52.484;4.658;2022-11-28T00:59:26;12.20;;;9.95;;
61638;SDS011;47544;52.484;4.658;2022-11-28T00:59:37;11.65;;;9.63;;
61638;SDS011;47544;52.484;4.658;2022-11-28T00:59:48;10.80;;;9.30;;
61638;SDS011;47544;52.484;4.658;2022-11-28T01:00:04;10.70;;;9.38;;
61638;SDS011;47544;52.484;4.658;2022-11-28T01:00:17;11.77;;;9.98;;
61638;SDS011;47544;52.484;4.658;2022-11-28T01:00:28;11.93;;;10.07;;
61638;SDS011;47544;52.484;4.658;2022-11-28T01:00:39;11.67;;;9.97;;
61638;SDS011;47544;52.484;4.658;2022-11-28T01:00:50;11.07;;;9.40;;
61638;SDS011;47544;52.484;4.658;2022-11-28T01:01:06;11.35;;;9.02;;
61638;SDS011;47544;52.484;4.658;2022-11-28T01:01:18;11.98;;;9.45;;
61638;SDS011;47544;52.484;4.658;2022-11-28T01:01:30;12.43;;;9.75;;
61638;SDS011;47544;52.484;4.658;2022-11-28T01:01:42;13.05;;;9.73;;
61638;SDS011;47544;52.484;4.658;2022-11-28T01:01:53;11.88;;;9.40;;
61638;SDS011;47544;52.484;4.658;2022-11-28T01:02:04;10.40;;;8.90;;
61638;SDS011;47544;52.484;4.658;2022-11-28T01:02:15;10.57;;;9.15;;
61638;SDS011;47544;52.484;4.658;2022-11-28T01:02:27;11.40;;;9.70;;
61638;SDS011;47544;52.484;4.658;2022-11-28T01:02:38;12.18;;;10.07;;
61638;SDS011;47544;52.484;4.658;2022-11-28T01:02:49;11.95;;;10.25;;
61638;SDS011;47544;52.484;4.658;2022-11-28T01:03:04;10.85;;;9.75;;
61638;SDS011;47544;52.484;4.658;2022-11-28T01:03:16;10.68;;;9.57;;
61638;SDS011;47544;52.484;4.658;2022-11-28T01:03:27;11.23;;;10.02;;
61638;SDS011;47544;52.484;4.658;2022-11-28T01:03:38;11.68;;;10.25;;
61638;SDS011;47544;52.484;4.658;2022-11-28T01:03:49;11.57;;;10.18;;
61638;SDS011;47544;52.484;4.658;2022-11-28T01:04:03;12.52;;;10.15;;
61638;SDS011;47544;52.484;4.658;2022-11-28T01:04:15;12.75;;;10.10;;
61638;SDS011;47544;52.484;4.658;2022-11-28T01:04:28;12.60;;;10.15;;
61638;SDS011;47544;52.484;4.658;2022-11-28T01:04:38;12.40;;;10.10;;
61638;SDS011;47544;52.484;4.658;2022-11-28T01:04:49;12.13;;;10.10;;
61638;SDS011;47544;52.484;4.658;2022-11-28T01:05:03;11.38;;;10.02;;
61638;SDS011;47544;52.484;4.658;2022-11-28T01:05:14;11.23;;;10.00;;
61638;SDS011;47544;52.484;4.658;2022-11-28T01:05:25;11.85;;;9.98;;
61638;SDS011;47544;52.484;4.658;2022-11-28T01:05:38;12.40;;;10.27;;
61638;SDS011;47544;52.484;4.658;2022-11-28T01:05:52;12.63;;;10.45;;
61638;SDS011;47544;52.484;4.658;2022-11-28T01:06:04;12.32;;;10.23;;
61638;SDS011;47544;52.484;4.658;2022-11-28T01:06:19;12.00;;;10.10;;
61638;SDS011;47544;52.484;4.658;2022-11-28T01:06:31;12.50;;;10.50;;
61638;SDS011;47544;52.484;4.658;2022-11-28T01:06:44;12.48;;;10.60;;
61638;SDS011;47544;52.484;4.658;2022-11-28T01:06:55;11.93;;;10.57;;
61638;SDS011;47544;52.484;4.658;2022-11-28T01:07:09;11.45;;;10.02;;
61638;SDS011;47544;52.484;4.658;2022-11-28T01:07:21;11.85;;;9.95;;
61638;SDS011;47544;52.484;4.658;2022-11-28T01:07:32;11.95;;;9.88;;
61638;SDS011;47544;52.484;4.658;2022-11-28T01:07:43;11.60;;;9.75;;
61638;SDS011;47544;52.484;4.658;2022-11-28T01:07:54;11.27;;;9.60;;
61638;SDS011;47544;52.484;4.658;2022-11-28T01:08:05;11.52;;;9.65;;
61638;SDS011;47544;52.484;4.658;2022-11-28T01:08:16;11.95;;;9.90;;
61638;SDS011;47544;52.484;4.658;2022-11-28T01:08:27;11.65;;;9.93;;
61638;SDS011;47544;52.484;4.658;2022-11-28T01:08:38;11.38;;;9.90;;
61638;SDS011;47544;52.484;4.658;2022-11-28T01:08:49;11.50;;;10.00;;
61638;SDS011;47544;52.484;4.658;2022-11-28T01:09:01;11.32;;;10.10;;
61638;SDS011;47544;52.484;4.658;2022-11-28T01:09:14;11.63;;;10.18;;
61638;SDS011;47544;52.484;4.658;2022-11-28T01:09:25;12.07;;;10.10;;
61638;SDS011;47544;52.484;4.658;2022-11-28T01:09:36;12.20;;;10.20;;
61638;SDS011;47544;52.484;4.658;2022-11-28T01:09:47;12.07;;;9.95;;
61638;SDS011;47544;52.484;4.658;2022-11-28T01:09:58;11.98;;;9.85;;
61638;SDS011;47544;52.484;4.658;2022-11-28T01:10:09;11.50;;;9.68;;
61638;SDS011;47544;52.484;4.658;2022-11-28T01:10:20;11.25;;;9.75;;
61638;SDS011;47544;52.484;4.658;2022-11-28T01:10:31;11.43;;;9.85;;
61638;SDS011;47544;52.484;4.658;2022-11-28T01:10:45;11.80;;;9.80;;
61638;SDS011;47544;52.484;4.658;2022-11-28T01:10:56;12.07;;;9.80;;
61638;SDS011;47544;52.484;4.658;2022-11-28T01:11:09;11.95;;;9.98;;
61638;SDS011;47544;52.484;4.658;2022-11-28T01:11:21;11.27;;;9.70;;
61638;SDS011;47544;52.484;4.658;2022-11-28T01:11:32;10.77;;;9.48;;
61638;SDS011;47544;52.484;4.658;2022-11-28T01:11:43;10.80;;;9.52;;
61638;SDS011;47544;52.484;4.658;2022-11-28T01:11:55;11.38;;;9.73;;
61638;SDS011;47544;52.484;4.658;2022-11-28T01:12:06;12.25;;;10.25;;
61638;SDS011;47544;52.484;4.658;2022-11-28T01:12:17;12.52;;;10.48;;